地図

経路データ

SID SEASON NUMBER BASIN SUBBASIN NAME ISO_TIME NATURE LAT LON WMO_WIND WMO_PRES WMO_AGENCY TRACK_TYPE DIST2LAND LANDFALL IFLAG USA_AGENCY USA_ATCF_ID USA_LAT USA_LON USA_RECORD USA_STATUS USA_WIND USA_PRES USA_SSHS USA_R34_NE USA_R34_SE USA_R34_SW USA_R34_NW USA_R50_NE USA_R50_SE USA_R50_SW USA_R50_NW USA_R64_NE USA_R64_SE USA_R64_SW USA_R64_NW USA_POCI USA_ROCI USA_RMW USA_EYE TOKYO_LAT TOKYO_LON TOKYO_GRADE TOKYO_WIND TOKYO_PRES TOKYO_R50_DIR TOKYO_R50_LONG TOKYO_R50_SHORT TOKYO_R30_DIR TOKYO_R30_LONG TOKYO_R30_SHORT TOKYO_LAND CMA_LAT CMA_LON CMA_CAT CMA_WIND CMA_PRES HKO_LAT HKO_LON HKO_CAT HKO_WIND HKO_PRES NEWDELHI_LAT NEWDELHI_LON NEWDELHI_GRADE NEWDELHI_WIND NEWDELHI_PRES NEWDELHI_CI NEWDELHI_DP NEWDELHI_POCI REUNION_LAT REUNION_LON REUNION_TYPE REUNION_WIND REUNION_PRES REUNION_TNUM REUNION_CI REUNION_RMW REUNION_R34_NE REUNION_R34_SE REUNION_R34_SW REUNION_R34_NW REUNION_R50_NE REUNION_R50_SE REUNION_R50_SW REUNION_R50_NW REUNION_R64_NE REUNION_R64_SE REUNION_R64_SW REUNION_R64_NW BOM_LAT BOM_LON BOM_TYPE BOM_WIND BOM_PRES BOM_TNUM BOM_CI BOM_RMW BOM_R34_NE BOM_R34_SE BOM_R34_SW BOM_R34_NW BOM_R50_NE BOM_R50_SE BOM_R50_SW BOM_R50_NW BOM_R64_NE BOM_R64_SE BOM_R64_SW BOM_R64_NW BOM_ROCI BOM_POCI BOM_EYE BOM_POS_METHOD BOM_PRES_METHOD NADI_LAT NADI_LON NADI_CAT NADI_WIND NADI_PRES WELLINGTON_LAT WELLINGTON_LON WELLINGTON_WIND WELLINGTON_PRES DS824_LAT DS824_LON DS824_STAGE DS824_WIND DS824_PRES TD9636_LAT TD9636_LON TD9636_STAGE TD9636_WIND TD9636_PRES TD9635_LAT TD9635_LON TD9635_WIND TD9635_PRES TD9635_ROCI NEUMANN_LAT NEUMANN_LON NEUMANN_CLASS NEUMANN_WIND NEUMANN_PRES MLC_LAT MLC_LON MLC_CLASS MLC_WIND MLC_PRES USA_GUST BOM_GUST BOM_GUST_PER REUNION_GUST REUNION_GUST_PER USA_SEAHGT USA_SEARAD_NE USA_SEARAD_SE USA_SEARAD_SW USA_SEARAD_NW STORM_SPEED STORM_DIR
2003206N21089 2003 50 NI BB NOT_NAMED 2003-07-25 03:00:00 NR 21.0000 89.0000 25 992 newdelhi main 67 49 ____O_________ -1 21.0000 89.0000 D 25 992 1.50000 2 7 299
2003206N21089 2003 50 NI BB NOT_NAMED 2003-07-25 06:00:00 NR 21.1738 88.6640 main 49 33 ____P_________ -1 21.1738 88.6640 D 26 990 2 7 299
2003206N21089 2003 50 NI BB NOT_NAMED 2003-07-25 09:00:00 NR 21.3421 88.3298 main 33 15 ____P_________ -1 21.3421 88.3298 D 28 989 3 7 298
2003206N21089 2003 50 NI BB NOT_NAMED 2003-07-25 12:00:00 NR 21.5000 88.0000 30 988 newdelhi main 23 11 ____O_________ -1 21.5000 88.0000 DD 30 988 2.00000 4 7 296
2003206N21089 2003 50 NI BB NOT_NAMED 2003-07-25 15:00:00 NR 21.6430 87.6732 main 11 0 ____P_________ -1 21.6430 87.6732 DD 7 293
2003206N21089 2003 50 NI BB NOT_NAMED 2003-07-25 18:00:00 NR 21.7678 87.3318 main 0 0 ____P_________ -1 21.7678 87.3318 DD 7 289
2003206N21089 2003 50 NI BB NOT_NAMED 2003-07-25 21:00:00 NR 21.8712 86.9537 main 0 0 ____P_________ -1 21.8712 86.9537 DD 8 284
2003206N21089 2003 50 NI BB NOT_NAMED 2003-07-26 00:00:00 NR 21.9499 86.5171 main 0 0 ____P_________ -1 21.9499 86.5171 DD 9 278
2003206N21089 2003 50 NI BB NOT_NAMED 2003-07-26 03:00:00 NR 22.0000 86.0000 30 990 newdelhi main 0 0 ____O_________ -1 22.0000 86.0000 DD 30 990 0.00000 4 10 273
2003206N21089 2003 50 NI BB NOT_NAMED 2003-07-26 06:00:00 NR 22.0049 85.3989 main 0 0 ____P_________ -1 22.0049 85.3989 DD 30 989 4 12 270
2003206N21089 2003 50 NI BB NOT_NAMED 2003-07-26 09:00:00 NR 21.9944 84.7253 main 0 0 ____P_________ -1 21.9944 84.7253 DD 30 988 4 13 270
2003206N21089 2003 50 NI BB NOT_NAMED 2003-07-26 12:00:00 NR 22.0000 84.0000 30 988 newdelhi main 0 0 ____O_________ -1 22.0000 84.0000 DD 30 988 0.00000 4 14 272
2003206N21089 2003 50 NI BB NOT_NAMED 2003-07-26 15:00:00 NR 22.0484 83.2585 main 0 0 ____P_________ -1 22.0484 83.2585 DD 14 275
2003206N21089 2003 50 NI BB NOT_NAMED 2003-07-26 18:00:00 NR 22.1262 82.4767 main 0 0 ____P_________ -1 22.1262 82.4767 DD 15 277
2003206N21089 2003 50 NI BB NOT_NAMED 2003-07-26 21:00:00 NR 22.2297 81.6656 main 0 0 ____P_________ -1 22.2297 81.6656 DD 15 279
2003206N21089 2003 50 NI BB NOT_NAMED 2003-07-27 00:00:00 NR 22.3554 80.8363 main 0 0 ____P_________ -1 22.3554 80.8363 DD 16 280
2003206N21089 2003 50 NI BB NOT_NAMED 2003-07-27 03:00:00 NR 22.5000 80.0000 25 992 newdelhi main 0 0 ____O_________ -1 22.5000 80.0000 D 25 992 0.00000 2 16 280
2003206N21089 2003 50 NI BB NOT_NAMED 2003-07-27 06:00:00 NR 22.6513 79.0898 main 0 0 ____P_________ -1 22.6513 79.0898 D 25 992 2 17 281
2003206N21089 2003 50 NI BB NOT_NAMED 2003-07-27 09:00:00 NR 22.8199 78.2223 main 0 0 ____P_________ -1 22.8199 78.2223 D 25 992 2 15 283
2003206N21089 2003 50 NI AS NOT_NAMED 2003-07-27 12:00:00 NR 23.0000 77.5000 25 992 newdelhi main 0 0 ____O_________ -1 23.0000 77.5000 D 25 992 0.00000 2 12 288
2003206N21089 2003 50 NI AS NOT_NAMED 2003-07-27 15:00:00 NR 23.1882 77.0007 main 0 0 ____P_________ -1 23.1882 77.0007 D 8 298
2003206N21089 2003 50 NI AS NOT_NAMED 2003-07-27 18:00:00 NR 23.3837 76.7007 main 0 0 ____P_________ -1 23.3837 76.7007 D 6 314
2003206N21089 2003 50 NI AS NOT_NAMED 2003-07-27 21:00:00 NR 23.5854 76.5503 main 0 0 ____P_________ -1 23.5854 76.5503 D 4 336
2003206N21089 2003 50 NI AS NOT_NAMED 2003-07-28 00:00:00 NR 23.7915 76.5001 main 0 0 ____P_________ -1 23.7915 76.5001 D 4 354
2003206N21089 2003 50 NI AS NOT_NAMED 2003-07-28 03:00:00 NR 24.0000 76.5000 25 994 newdelhi main 0 ____O_________ -1 24.0000 76.5000 D 25 994 0.00000 2 4 355

IBTrACS Databaseについて

本データベースは、米国NOAAが公開する1842年以降の世界の熱帯低気圧のベストトラックデータアーカイブInternational Best Track Archive for Climate Stewardship (IBTrACS)を、ウェブで閲覧しやすい形式に変換したものです。

最終更新日:2021-11-26